sensor_id;sensor_type;location;lat;lon;timestamp;pressure;altitude;pressure_sealevel;temperature;humidity
41624;BME280;27319;50.306;18.926;2023-04-20T00:01:40;98359.53;;;8.09;95.68
41624;BME280;27319;50.306;18.926;2023-04-20T00:05:24;98369.03;;;7.94;96.56
41624;BME280;27319;50.306;18.926;2023-04-20T00:08:25;98356.06;;;7.99;96.71
41624;BME280;27319;50.306;18.926;2023-04-20T00:11:46;98357.75;;;8.00;95.92
41624;BME280;27319;50.306;18.926;2023-04-20T00:15:46;98354.34;;;8.08;96.08
41624;BME280;27319;50.306;18.926;2023-04-20T00:19:47;98357.53;;;7.94;96.83
41624;BME280;27319;50.306;18.926;2023-04-20T00:23:48;98356.41;;;7.87;97.80
41624;BME280;27319;50.306;18.926;2023-04-20T00:27:49;98353.91;;;7.85;97.47
41624;BME280;27319;50.306;18.926;2023-04-20T00:31:50;98346.59;;;7.87;97.50
41624;BME280;27319;50.306;18.926;2023-04-20T00:35:50;98348.91;;;8.00;97.12
41624;BME280;27319;50.306;18.926;2023-04-20T00:39:51;98345.53;;;7.98;96.88
41624;BME280;27319;50.306;18.926;2023-04-20T00:43:52;98344.84;;;7.96;97.47
41624;BME280;27319;50.306;18.926;2023-04-20T00:47:53;98341.56;;;8.02;96.86
41624;BME280;27319;50.306;18.926;2023-04-20T00:51:57;98337.81;;;7.95;97.41
41624;BME280;27319;50.306;18.926;2023-04-20T00:55:53;98329.75;;;7.77;99.88
41624;BME280;27319;50.306;18.926;2023-04-20T00:58:54;98323.81;;;7.83;98.95
41624;BME280;27319;50.306;18.926;2023-04-20T01:01:56;98337.81;;;7.95;97.89
41624;BME280;27319;50.306;18.926;2023-04-20T01:05:17;98329.28;;;7.91;98.10
41624;BME280;27319;50.306;18.926;2023-04-20T01:09:18;98325.66;;;7.83;98.84
41624;BME280;27319;50.306;18.926;2023-04-20T01:13:19;98324.06;;;7.90;98.13
41624;BME280;27319;50.306;18.926;2023-04-20T01:17:19;98319.53;;;7.90;97.88
41624;BME280;27319;50.306;18.926;2023-04-20T01:21:21;98320.94;;;7.94;97.80
41624;BME280;27319;50.306;18.926;2023-04-20T01:25:21;98314.31;;;7.98;97.08
41624;BME280;27319;50.306;18.926;2023-04-20T01:29:22;98315.53;;;8.04;96.19
41624;BME280;27319;50.306;18.926;2023-04-20T01:33:23;98314.53;;;8.05;96.58
41624;BME280;27319;50.306;18.926;2023-04-20T01:37:24;98319.88;;;8.05;96.44
41624;BME280;27319;50.306;18.926;2023-04-20T01:41:25;98319.94;;;7.95;97.68
41624;BME280;27319;50.306;18.926;2023-04-20T01:45:26;98331.41;;;8.05;96.36
41624;BME280;27319;50.306;18.926;2023-04-20T01:49:26;98319.34;;;8.01;96.71
41624;BME280;27319;50.306;18.926;2023-04-20T01:53:27;98331.72;;;8.02;96.95
41624;BME280;27319;50.306;18.926;2023-04-20T01:57:28;98333.09;;;8.06;96.41
41624;BME280;27319;50.306;18.926;2023-04-20T02:01:29;98336.38;;;8.00;97.16
41624;BME280;27319;50.306;18.926;2023-04-20T02:05:30;98334.56;;;8.01;97.38
41624;BME280;27319;50.306;18.926;2023-04-20T02:09:31;98335.28;;;7.93;98.87
41624;BME280;27319;50.306;18.926;2023-04-20T02:13:31;98327.69;;;7.98;97.09
41624;BME280;27319;50.306;18.926;2023-04-20T02:17:32;98334.91;;;7.88;98.63
41624;BME280;27319;50.306;18.926;2023-04-20T02:21:33;98337.66;;;7.96;97.38
41624;BME280;27319;50.306;18.926;2023-04-20T02:25:34;98333.03;;;7.98;97.56
41624;BME280;27319;50.306;18.926;2023-04-20T02:29:35;98337.09;;;7.75;100.00
41624;BME280;27319;50.306;18.926;2023-04-20T02:33:36;98335.34;;;7.84;99.14
41624;BME280;27319;50.306;18.926;2023-04-20T02:37:17;98337.56;;;7.88;98.63
41624;BME280;27319;50.306;18.926;2023-04-20T02:40:17;98333.75;;;7.91;98.59
41624;BME280;27319;50.306;18.926;2023-04-20T02:43:19;98329.75;;;7.77;100.00
41624;BME280;27319;50.306;18.926;2023-04-20T02:46:40;98330.53;;;7.87;99.16
41624;BME280;27319;50.306;18.926;2023-04-20T02:50:41;98325.16;;;7.97;97.98
41624;BME280;27319;50.306;18.926;2023-04-20T02:54:41;98328.88;;;7.86;99.22
41624;BME280;27319;50.306;18.926;2023-04-20T02:58:42;98334.75;;;7.90;98.17
41624;BME280;27319;50.306;18.926;2023-04-20T03:02:43;98335.28;;;7.93;98.76
41624;BME280;27319;50.306;18.926;2023-04-20T03:06:24;98327.97;;;7.95;98.37
41624;BME280;27319;50.306;18.926;2023-04-20T03:09:26;98327.06;;;8.04;96.81
41624;BME280;27319;50.306;18.926;2023-04-20T03:12:27;98330.13;;;8.09;96.86
41624;BME280;27319;50.306;18.926;2023-04-20T03:15:48;98339.44;;;8.05;96.93
41624;BME280;27319;50.306;18.926;2023-04-20T03:19:49;98342.63;;;7.91;98.88
41624;BME280;27319;50.306;18.926;2023-04-20T03:23:50;98337.81;;;7.95;98.35
41624;BME280;27319;50.306;18.926;2023-04-20T03:27:50;98348.00;;;8.09;96.60
41624;BME280;27319;50.306;18.926;2023-04-20T03:31:51;98340.56;;;8.03;97.07
41624;BME280;27319;50.306;18.926;2023-04-20T03:35:52;98345.66;;;7.96;97.81
41624;BME280;27319;50.306;18.926;2023-04-20T03:39:33;98345.66;;;7.96;97.93
41624;BME280;27319;50.306;18.926;2023-04-20T03:42:34;98347.06;;;8.00;97.53
41624;BME280;27319;50.306;18.926;2023-04-20T03:45:35;98358.28;;;8.04;97.29
41624;BME280;27319;50.306;18.926;2023-04-20T03:48:55;98370.44;;;7.98;98.10
41624;BME280;27319;50.306;18.926;2023-04-20T03:52:56;98364.50;;;8.04;97.38
41624;BME280;27319;50.306;18.926;2023-04-20T03:56:57;98363.03;;;8.10;97.31
41624;BME280;27319;50.306;18.926;2023-04-20T04:00:38;98363.78;;;8.02;97.82
41624;BME280;27319;50.306;18.926;2023-04-20T04:03:39;98368.75;;;7.97;98.67
41624;BME280;27319;50.306;18.926;2023-04-20T04:06:40;98366.75;;;7.99;97.68
41624;BME280;27319;50.306;18.926;2023-04-20T04:09:41;98366.09;;;7.97;98.43
41624;BME280;27319;50.306;18.926;2023-04-20T04:13:02;98376.06;;;7.95;98.32
41624;BME280;27319;50.306;18.926;2023-04-20T04:17:03;98360.28;;;8.02;97.68
41624;BME280;27319;50.306;18.926;2023-04-20T04:21:03;98369.72;;;7.96;99.14
41624;BME280;27319;50.306;18.926;2023-04-20T04:25:04;98364.19;;;8.07;97.93
41624;BME280;27319;50.306;18.926;2023-04-20T04:28:45;98378.00;;;8.03;97.79
41624;BME280;27319;50.306;18.926;2023-04-20T04:31:46;98367.03;;;8.06;98.01
41624;BME280;27319;50.306;18.926;2023-04-20T04:34:47;98365.88;;;8.08;97.86
41624;BME280;27319;50.306;18.926;2023-04-20T04:37:49;98372.31;;;8.15;97.61
41624;BME280;27319;50.306;18.926;2023-04-20T04:40:52;98370.31;;;8.17;97.25
41624;BME280;27319;50.306;18.926;2023-04-20T04:43:53;98378.34;;;8.17;97.41
41624;BME280;27319;50.306;18.926;2023-04-20T04:46:54;98381.00;;;8.17;97.13
41624;BME280;27319;50.306;18.926;2023-04-20T04:49:55;98383.00;;;8.15;97.94
41624;BME280;27319;50.306;18.926;2023-04-20T04:53:16;98397.38;;;8.14;97.96
41624;BME280;27319;50.306;18.926;2023-04-20T04:57:17;98383.44;;;8.20;97.34
41624;BME280;27319;50.306;18.926;2023-04-20T05:01:18;98385.78;;;8.23;97.18
41624;BME280;27319;50.306;18.926;2023-04-20T05:04:59;98381.69;;;8.29;96.69
41624;BME280;27319;50.306;18.926;2023-04-20T05:08:00;98384.91;;;8.32;97.16
41624;BME280;27319;50.306;18.926;2023-04-20T05:11:20;98384.59;;;8.35;96.63
41624;BME280;27319;50.306;18.926;2023-04-20T05:14:49;98388.50;;;8.41;95.98
41624;BME280;27319;50.306;18.926;2023-04-20T05:18:50;98389.66;;;8.38;96.38
41624;BME280;27319;50.306;18.926;2023-04-20T05:22:50;98393.22;;;8.29;96.68
41624;BME280;27319;50.306;18.926;2023-04-20T05:26:51;98391.19;;;8.41;96.65
41624;BME280;27319;50.306;18.926;2023-04-20T05:30:52;98394.06;;;8.47;98.13
41624;BME280;27319;50.306;18.926;2023-04-20T05:34:53;98397.53;;;8.57;96.93
41624;BME280;27319;50.306;18.926;2023-04-20T05:38:54;98403.88;;;8.56;97.65
41624;BME280;27319;50.306;18.926;2023-04-20T05:42:55;98398.78;;;8.63;97.55
41624;BME280;27319;50.306;18.926;2023-04-20T05:46:38;98406.19;;;8.69;96.69
41624;BME280;27319;50.306;18.926;2023-04-20T05:50:38;98407.94;;;8.78;95.54
41624;BME280;27319;50.306;18.926;2023-04-20T05:54:39;98410.75;;;8.76;96.76
41624;BME280;27319;50.306;18.926;2023-04-20T05:58:40;98413.50;;;9.02;95.58
41624;BME280;27319;50.306;18.926;2023-04-20T06:02:41;98415.44;;;8.92;95.23
41624;BME280;27319;50.306;18.926;2023-04-20T06:06:22;98418.84;;;9.02;96.16
41624;BME280;27319;50.306;18.926;2023-04-20T06:09:22;98435.09;;;9.00;94.55
41624;BME280;27319;50.306;18.926;2023-04-20T06:12:23;98429.41;;;9.03;95.12
41624;BME280;27319;50.306;18.926;2023-04-20T06:15:24;98438.13;;;9.05;94.92
41624;BME280;27319;50.306;18.926;2023-04-20T06:18:25;98437.84;;;9.08;94.34
41624;BME280;27319;50.306;18.926;2023-04-20T06:21:26;98434.16;;;9.09;94.70
41624;BME280;27319;50.306;18.926;2023-04-20T06:24:47;98432.25;;;9.02;94.66
41624;BME280;27319;50.306;18.926;2023-04-20T06:28:48;98431.78;;;8.89;95.58
41624;BME280;27319;50.306;18.926;2023-04-20T06:32:49;98437.78;;;9.00;94.64
41624;BME280;27319;50.306;18.926;2023-04-20T06:36:50;98443.28;;;8.99;94.16
41624;BME280;27319;50.306;18.926;2023-04-20T06:40:53;98432.63;;;9.07;94.00
41624;BME280;27319;50.306;18.926;2023-04-20T06:44:55;98430.81;;;9.07;93.94
41624;BME280;27319;50.306;18.926;2023-04-20T06:48:56;98423.34;;;9.19;95.45
41624;BME280;27319;50.306;18.926;2023-04-20T06:52:57;98427.47;;;9.31;94.86
41624;BME280;27319;50.306;18.926;2023-04-20T06:56:58;98438.44;;;9.45;93.93
41624;BME280;27319;50.306;18.926;2023-04-20T07:00:16;98437.47;;;9.46;94.26
41624;BME280;27319;50.306;18.926;2023-04-20T07:03:36;98439.69;;;9.51;94.63
41624;BME280;27319;50.306;18.926;2023-04-20T07:07:05;98447.25;;;9.55;94.34
41624;BME280;27319;50.306;18.926;2023-04-20T07:10:13;98445.31;;;9.65;93.98
41624;BME280;27319;50.306;18.926;2023-04-20T07:14:13;98442.00;;;9.71;93.35
41624;BME280;27319;50.306;18.926;2023-04-20T07:18:17;98443.03;;;9.78;93.15
41624;BME280;27319;50.306;18.926;2023-04-20T07:22:18;98441.84;;;9.73;92.33
41624;BME280;27319;50.306;18.926;2023-04-20T07:26:18;98445.75;;;9.86;92.94
41624;BME280;27319;50.306;18.926;2023-04-20T07:30:19;98454.38;;;9.98;91.41
41624;BME280;27319;50.306;18.926;2023-04-20T07:34:19;98454.69;;;9.95;90.77
41624;BME280;27319;50.306;18.926;2023-04-20T07:38:20;98458.72;;;10.16;90.66
41624;BME280;27319;50.306;18.926;2023-04-20T07:42:21;98449.53;;;10.01;90.43
41624;BME280;27319;50.306;18.926;2023-04-20T07:46:22;98446.41;;;10.06;90.74
41624;BME280;27319;50.306;18.926;2023-04-20T07:50:23;98450.03;;;10.22;91.00
41624;BME280;27319;50.306;18.926;2023-04-20T07:54:26;98457.16;;;10.39;89.82
41624;BME280;27319;50.306;18.926;2023-04-20T07:58:26;98458.91;;;10.23;89.51
41624;BME280;27319;50.306;18.926;2023-04-20T08:02:27;98457.44;;;10.36;90.60
41624;BME280;27319;50.306;18.926;2023-04-20T08:06:08;98460.34;;;10.43;90.42
41624;BME280;27319;50.306;18.926;2023-04-20T08:09:12;98456.22;;;10.72;91.16
41624;BME280;27319;50.306;18.926;2023-04-20T08:12:33;98460.31;;;11.00;89.25
41624;BME280;27319;50.306;18.926;2023-04-20T08:16:34;98449.56;;;11.00;88.22
41624;BME280;27319;50.306;18.926;2023-04-20T08:20:34;98451.28;;;11.17;87.75
41624;BME280;27319;50.306;18.926;2023-04-20T08:24:18;98460.72;;;11.37;87.49
41624;BME280;27319;50.306;18.926;2023-04-20T08:27:44;98446.94;;;11.48;86.81
41624;BME280;27319;50.306;18.926;2023-04-20T08:30:49;98450.47;;;11.64;86.32
41624;BME280;27319;50.306;18.926;2023-04-20T08:34:10;98455.97;;;11.87;85.02
41624;BME280;27319;50.306;18.926;2023-04-20T08:38:11;98464.38;;;11.92;84.18
41624;BME280;27319;50.306;18.926;2023-04-20T08:42:12;98461.88;;;11.90;82.68
41624;BME280;27319;50.306;18.926;2023-04-20T08:46:12;98458.78;;;12.01;82.01
41624;BME280;27319;50.306;18.926;2023-04-20T08:49:54;98461.13;;;12.12;83.47
41624;BME280;27319;50.306;18.926;2023-04-20T08:53:15;98456.56;;;12.21;82.73
41624;BME280;27319;50.306;18.926;2023-04-20T08:56:56;98453.66;;;12.30;81.58
41624;BME280;27319;50.306;18.926;2023-04-20T08:59:58;98459.47;;;12.50;81.42
41624;BME280;27319;50.306;18.926;2023-04-20T09:02:59;98466.56;;;12.51;79.78
41624;BME280;27319;50.306;18.926;2023-04-20T09:06:01;98453.72;;;12.61;79.76
41624;BME280;27319;50.306;18.926;2023-04-20T09:09:23;98457.41;;;12.68;78.48
41624;BME280;27319;50.306;18.926;2023-04-20T09:13:03;98460.91;;;12.68;78.76
41624;BME280;27319;50.306;18.926;2023-04-20T09:16:11;98464.25;;;12.78;79.23
41624;BME280;27319;50.306;18.926;2023-04-20T09:19:13;98457.59;;;12.89;77.92
41624;BME280;27319;50.306;18.926;2023-04-20T09:22:14;98460.78;;;13.00;78.12
41624;BME280;27319;50.306;18.926;2023-04-20T09:25:16;98462.81;;;12.90;77.46
41624;BME280;27319;50.306;18.926;2023-04-20T09:28:17;98455.31;;;13.08;78.19
41624;BME280;27319;50.306;18.926;2023-04-20T09:31:38;98462.16;;;13.19;76.13
41624;BME280;27319;50.306;18.926;2023-04-20T09:35:43;98462.63;;;13.22;74.56
41624;BME280;27319;50.306;18.926;2023-04-20T09:39:44;98472.28;;;13.62;74.92
41624;BME280;27319;50.306;18.926;2023-04-20T09:43:44;98468.97;;;14.26;75.61
41624;BME280;27319;50.306;18.926;2023-04-20T09:47:45;98458.06;;;14.63;72.22
41624;BME280;27319;50.306;18.926;2023-04-20T09:51:26;98458.66;;;14.94;72.11
41624;BME280;27319;50.306;18.926;2023-04-20T09:54:47;98457.31;;;15.04;69.65
41624;BME280;27319;50.306;18.926;2023-04-20T09:58:48;98457.47;;;15.17;69.30
41624;BME280;27319;50.306;18.926;2023-04-20T10:02:49;98454.56;;;15.19;69.86
41624;BME280;27319;50.306;18.926;2023-04-20T10:06:32;98449.81;;;15.21;68.75
41624;BME280;27319;50.306;18.926;2023-04-20T10:09:33;98452.97;;;15.24;68.81
41624;BME280;27319;50.306;18.926;2023-04-20T10:13:09;98447.63;;;15.10;69.23
41624;BME280;27319;50.306;18.926;2023-04-20T10:17:27;98445.03;;;15.02;68.56
41624;BME280;27319;50.306;18.926;2023-04-20T10:21:22;98444.66;;;15.05;68.77
41624;BME280;27319;50.306;18.926;2023-04-20T10:25:23;98439.53;;;15.10;68.59
41624;BME280;27319;50.306;18.926;2023-04-20T10:29:25;98434.44;;;15.21;70.13
41624;BME280;27319;50.306;18.926;2023-04-20T10:33:28;98433.19;;;15.38;69.81
41624;BME280;27319;50.306;18.926;2023-04-20T10:37:29;98434.59;;;14.99;68.81
41624;BME280;27319;50.306;18.926;2023-04-20T10:41:29;98433.94;;;14.76;69.55
41624;BME280;27319;50.306;18.926;2023-04-20T10:45:11;98435.34;;;14.57;69.79
41624;BME280;27319;50.306;18.926;2023-04-20T10:48:12;98432.50;;;14.30;71.49
41624;BME280;27319;50.306;18.926;2023-04-20T10:51:13;98427.91;;;14.30;72.69
41624;BME280;27319;50.306;18.926;2023-04-20T10:54:16;98426.84;;;14.17;70.87
41624;BME280;27319;50.306;18.926;2023-04-20T10:57:17;98425.75;;;13.97;71.51
41624;BME280;27319;50.306;18.926;2023-04-20T11:00:23;98422.78;;;14.21;70.71
41624;BME280;27319;50.306;18.926;2023-04-20T11:03:26;98424.69;;;14.20;69.17
41624;BME280;27319;50.306;18.926;2023-04-20T11:06:48;98418.13;;;14.29;71.56
41624;BME280;27319;50.306;18.926;2023-04-20T11:11:01;98423.72;;;14.28;71.34
41624;BME280;27319;50.306;18.926;2023-04-20T11:15:14;98424.00;;;14.33;70.93
41624;BME280;27319;50.306;18.926;2023-04-20T11:18:55;98421.13;;;14.34;70.75
41624;BME280;27319;50.306;18.926;2023-04-20T11:21:57;98424.38;;;14.80;71.16
41624;BME280;27319;50.306;18.926;2023-04-20T11:25:03;98426.38;;;15.07;68.59
41624;BME280;27319;50.306;18.926;2023-04-20T11:28:06;98428.16;;;15.21;69.28
41624;BME280;27319;50.306;18.926;2023-04-20T11:31:15;98425.69;;;15.19;68.87
41624;BME280;27319;50.306;18.926;2023-04-20T11:34:16;98427.41;;;15.06;67.92
41624;BME280;27319;50.306;18.926;2023-04-20T11:37:17;98432.75;;;15.20;69.21
41624;BME280;27319;50.306;18.926;2023-04-20T11:40:18;98431.84;;;15.13;68.73
41624;BME280;27319;50.306;18.926;2023-04-20T11:43:19;98433.69;;;14.92;69.13
41624;BME280;27319;50.306;18.926;2023-04-20T11:46:20;98429.19;;;14.99;69.74
41624;BME280;27319;50.306;18.926;2023-04-20T11:49:22;98424.69;;;15.06;70.49
41624;BME280;27319;50.306;18.926;2023-04-20T11:52:43;98422.31;;;15.17;69.03
41624;BME280;27319;50.306;18.926;2023-04-20T11:56:44;98423.59;;;15.00;70.31
41624;BME280;27319;50.306;18.926;2023-04-20T12:00:45;98423.34;;;14.95;70.09
41624;BME280;27319;50.306;18.926;2023-04-20T12:04:26;98421.13;;;14.84;70.56
41624;BME280;27319;50.306;18.926;2023-04-20T12:07:27;98421.66;;;14.94;71.25
41624;BME280;27319;50.306;18.926;2023-04-20T12:10:28;98421.28;;;14.97;71.58
41624;BME280;27319;50.306;18.926;2023-04-20T12:13:29;98420.28;;;14.84;69.34
41624;BME280;27319;50.306;18.926;2023-04-20T12:16:30;98418.97;;;14.80;69.97
41624;BME280;27319;50.306;18.926;2023-04-20T12:19:31;98404.97;;;14.91;71.17
41624;BME280;27319;50.306;18.926;2023-04-20T12:22:32;98411.09;;;14.99;71.14
41624;BME280;27319;50.306;18.926;2023-04-20T12:25:33;98408.41;;;14.99;71.25
41624;BME280;27319;50.306;18.926;2023-04-20T12:28:34;98416.91;;;15.17;69.47
41624;BME280;27319;50.306;18.926;2023-04-20T12:31:35;98415.16;;;15.31;70.22
41624;BME280;27319;50.306;18.926;2023-04-20T12:34:36;98412.47;;;15.31;69.53
41624;BME280;27319;50.306;18.926;2023-04-20T12:37:37;98415.47;;;15.57;70.93
41624;BME280;27319;50.306;18.926;2023-04-20T12:40:38;98422.00;;;15.69;68.45
41624;BME280;27319;50.306;18.926;2023-04-20T12:43:39;98423.03;;;15.95;68.57
41624;BME280;27319;50.306;18.926;2023-04-20T12:46:40;98422.41;;;16.27;66.57
41624;BME280;27319;50.306;18.926;2023-04-20T12:49:41;98408.22;;;16.25;67.44
41624;BME280;27319;50.306;18.926;2023-04-20T12:52:44;98413.09;;;16.02;67.54
41624;BME280;27319;50.306;18.926;2023-04-20T12:55:45;98410.75;;;16.27;69.67
41624;BME280;27319;50.306;18.926;2023-04-20T12:58:46;98402.81;;;16.59;66.96
41624;BME280;27319;50.306;18.926;2023-04-20T13:02:07;98401.19;;;17.38;66.38
41624;BME280;27319;50.306;18.926;2023-04-20T13:05:48;98410.41;;;17.63;64.24
41624;BME280;27319;50.306;18.926;2023-04-20T13:09:08;98403.66;;;17.33;64.21
41624;BME280;27319;50.306;18.926;2023-04-20T13:13:09;98390.94;;;18.05;61.88
41624;BME280;27319;50.306;18.926;2023-04-20T13:16:31;98393.25;;;18.01;60.66
41624;BME280;27319;50.306;18.926;2023-04-20T13:19:32;98396.41;;;17.85;62.62
41624;BME280;27319;50.306;18.926;2023-04-20T13:22:33;98394.69;;;18.17;61.06
41624;BME280;27319;50.306;18.926;2023-04-20T13:25:34;98388.84;;;18.13;59.53
41624;BME280;27319;50.306;18.926;2023-04-20T13:28:35;98395.56;;;17.98;60.79
41624;BME280;27319;50.306;18.926;2023-04-20T13:31:37;98387.38;;;18.17;60.81
41624;BME280;27319;50.306;18.926;2023-04-20T13:34:38;98392.31;;;18.53;58.78
41624;BME280;27319;50.306;18.926;2023-04-20T13:37:59;98403.03;;;18.35;57.08
41624;BME280;27319;50.306;18.926;2023-04-20T13:42:00;98398.13;;;18.63;60.28
41624;BME280;27319;50.306;18.926;2023-04-20T13:45:28;98405.84;;;18.66;56.69
41624;BME280;27319;50.306;18.926;2023-04-20T13:49:09;98392.88;;;19.12;57.42
41624;BME280;27319;50.306;18.926;2023-04-20T13:52:10;98393.13;;;19.41;55.66
41624;BME280;27319;50.306;18.926;2023-04-20T13:55:11;98402.25;;;19.53;54.54
41624;BME280;27319;50.306;18.926;2023-04-20T13:58:32;98390.41;;;19.41;54.04
41624;BME280;27319;50.306;18.926;2023-04-20T14:02:33;98397.03;;;19.76;56.27
41624;BME280;27319;50.306;18.926;2023-04-20T14:06:34;98397.41;;;19.31;55.66
41624;BME280;27319;50.306;18.926;2023-04-20T14:10:34;98387.69;;;19.04;55.98
41624;BME280;27319;50.306;18.926;2023-04-20T14:14:35;98399.06;;;19.32;53.49
41624;BME280;27319;50.306;18.926;2023-04-20T14:18:33;98397.16;;;19.63;53.03
41624;BME280;27319;50.306;18.926;2023-04-20T14:21:53;98396.88;;;19.71;53.03
41624;BME280;27319;50.306;18.926;2023-04-20T14:25:55;98395.44;;;19.93;53.66
41624;BME280;27319;50.306;18.926;2023-04-20T14:29:35;98388.19;;;19.81;50.09
41624;BME280;27319;50.306;18.926;2023-04-20T14:32:36;98388.53;;;19.91;50.23
41624;BME280;27319;50.306;18.926;2023-04-20T14:35:57;98389.28;;;19.55;49.30
41624;BME280;27319;50.306;18.926;2023-04-20T14:39:54;98389.66;;;19.59;49.70
41624;BME280;27319;50.306;18.926;2023-04-20T14:42:55;98382.91;;;19.86;48.22
41624;BME280;27319;50.306;18.926;2023-04-20T14:46:17;98377.13;;;19.27;45.42
41624;BME280;27319;50.306;18.926;2023-04-20T14:50:13;98378.44;;;18.74;44.88
41624;BME280;27319;50.306;18.926;2023-04-20T14:54:04;98384.34;;;18.58;44.30
41624;BME280;27319;50.306;18.926;2023-04-20T14:57:24;98380.88;;;18.38;44.92
41624;BME280;27319;50.306;18.926;2023-04-20T15:01:25;98384.06;;;17.96;43.35
41624;BME280;27319;50.306;18.926;2023-04-20T15:05:07;98383.66;;;17.73;44.21
41624;BME280;27319;50.306;18.926;2023-04-20T15:08:28;98384.53;;;17.80;47.21
41624;BME280;27319;50.306;18.926;2023-04-20T15:12:28;98377.41;;;17.72;49.66
41624;BME280;27319;50.306;18.926;2023-04-20T15:16:08;98386.59;;;17.65;48.39
41624;BME280;27319;50.306;18.926;2023-04-20T15:19:29;98379.94;;;17.54;48.83
41624;BME280;27319;50.306;18.926;2023-04-20T15:23:30;98387.00;;;17.49;50.55
41624;BME280;27319;50.306;18.926;2023-04-20T15:27:07;98373.41;;;17.36;50.46
41624;BME280;27319;50.306;18.926;2023-04-20T15:30:09;98382.59;;;17.35;49.26
41624;BME280;27319;50.306;18.926;2023-04-20T15:33:10;98380.28;;;17.19;51.02
41624;BME280;27319;50.306;18.926;2023-04-20T15:36:27;98376.53;;;17.33;50.48
41624;BME280;27319;50.306;18.926;2023-04-20T15:39:28;98372.97;;;17.26;51.49
41624;BME280;27319;50.306;18.926;2023-04-20T15:42:49;98376.13;;;17.23;50.71
41624;BME280;27319;50.306;18.926;2023-04-20T15:46:49;98381.09;;;17.13;51.03
41624;BME280;27319;50.306;18.926;2023-04-20T15:50:10;98369.41;;;17.19;51.41
41624;BME280;27319;50.306;18.926;2023-04-20T15:53:51;98373.56;;;17.15;51.26
41624;BME280;27319;50.306;18.926;2023-04-20T15:57:08;98373.41;;;17.23;52.04
41624;BME280;27319;50.306;18.926;2023-04-20T16:00:09;98371.06;;;17.13;52.48
41624;BME280;27319;50.306;18.926;2023-04-20T16:03:10;98364.84;;;17.32;51.57
41624;BME280;27319;50.306;18.926;2023-04-20T16:06:12;98365.28;;;17.42;54.55
41624;BME280;27319;50.306;18.926;2023-04-20T16:09:33;98366.56;;;17.40;52.52
41624;BME280;27319;50.306;18.926;2023-04-20T16:13:09;98374.47;;;17.35;50.48
41624;BME280;27319;50.306;18.926;2023-04-20T16:16:31;98373.16;;;17.11;52.50
41624;BME280;27319;50.306;18.926;2023-04-20T16:20:32;98366.44;;;16.94;54.37
41624;BME280;27319;50.306;18.926;2023-04-20T16:24:32;98360.59;;;16.91;53.10
41624;BME280;27319;50.306;18.926;2023-04-20T16:28:33;98370.56;;;16.77;53.64
41624;BME280;27319;50.306;18.926;2023-04-20T16:32:14;98371.38;;;16.65;55.41
41624;BME280;27319;50.306;18.926;2023-04-20T16:35:35;98377.97;;;16.49;57.27
41624;BME280;27319;50.306;18.926;2023-04-20T16:39:12;98372.13;;;16.46;55.74
41624;BME280;27319;50.306;18.926;2023-04-20T16:42:33;98378.72;;;16.37;55.74
41624;BME280;27319;50.306;18.926;2023-04-20T16:46:33;98379.88;;;16.21;57.62
41624;BME280;27319;50.306;18.926;2023-04-20T16:50:34;98388.13;;;16.07;58.48
41624;BME280;27319;50.306;18.926;2023-04-20T16:54:15;98378.81;;;15.82;60.21
41624;BME280;27319;50.306;18.926;2023-04-20T16:57:16;98378.06;;;15.67;59.39
41624;BME280;27319;50.306;18.926;2023-04-20T17:00:37;98379.50;;;15.63;61.59
41624;BME280;27319;50.306;18.926;2023-04-20T17:04:18;98392.78;;;15.58;61.10
41624;BME280;27319;50.306;18.926;2023-04-20T17:07:38;98392.53;;;15.53;62.24
41624;BME280;27319;50.306;18.926;2023-04-20T17:11:39;98387.09;;;15.32;63.78
41624;BME280;27319;50.306;18.926;2023-04-20T17:15:40;98390.97;;;15.02;63.72
41624;BME280;27319;50.306;18.926;2023-04-20T17:19:41;98380.41;;;15.07;63.94
41624;BME280;27319;50.306;18.926;2023-04-20T17:23:42;98385.03;;;14.92;65.37
41624;BME280;27319;50.306;18.926;2023-04-20T17:27:43;98377.19;;;14.76;64.24
41624;BME280;27319;50.306;18.926;2023-04-20T17:31:24;98381.88;;;14.67;64.85
41624;BME280;27319;50.306;18.926;2023-04-20T17:35:05;98383.72;;;14.67;66.86
41624;BME280;27319;50.306;18.926;2023-04-20T17:38:06;98385.09;;;14.63;66.20
41624;BME280;27319;50.306;18.926;2023-04-20T17:41:07;98382.72;;;14.53;66.31
41624;BME280;27319;50.306;18.926;2023-04-20T17:44:27;98390.00;;;14.53;66.86
41624;BME280;27319;50.306;18.926;2023-04-20T17:48:28;98382.25;;;14.50;67.39
41624;BME280;27319;50.306;18.926;2023-04-20T17:52:29;98387.78;;;14.42;67.25
41624;BME280;27319;50.306;18.926;2023-04-20T17:56:30;98382.84;;;14.31;67.37
41624;BME280;27319;50.306;18.926;2023-04-20T18:00:31;98383.44;;;14.26;68.13
41624;BME280;27319;50.306;18.926;2023-04-20T18:04:12;98381.81;;;14.17;67.75
41624;BME280;27319;50.306;18.926;2023-04-20T18:07:13;98373.91;;;14.01;67.37
41624;BME280;27319;50.306;18.926;2023-04-20T18:10:17;98381.19;;;14.01;67.94
41624;BME280;27319;50.306;18.926;2023-04-20T18:13:17;98381.72;;;13.96;68.42
41624;BME280;27319;50.306;18.926;2023-04-20T18:16:18;98381.06;;;13.94;69.82
41624;BME280;27319;50.306;18.926;2023-04-20T18:19:19;98388.97;;;13.81;68.23
41624;BME280;27319;50.306;18.926;2023-04-20T18:22:36;98386.00;;;13.91;69.52
41624;BME280;27319;50.306;18.926;2023-04-20T18:25:57;98394.00;;;13.84;69.22
41624;BME280;27319;50.306;18.926;2023-04-20T18:29:38;98391.69;;;13.81;68.83
41624;BME280;27319;50.306;18.926;2023-04-20T18:32:39;98395.63;;;13.71;70.13
41624;BME280;27319;50.306;18.926;2023-04-20T18:36:00;98393.78;;;13.71;71.54
41624;BME280;27319;50.306;18.926;2023-04-20T18:40:01;98398.84;;;13.74;70.34
41624;BME280;27319;50.306;18.926;2023-04-20T18:43:45;98397.06;;;13.67;69.94